createdAt,value
2022-10-20T00:00:07.717Z,100495.91
2022-10-20T00:02:37.192Z,100490.03
2022-10-20T00:05:05.990Z,100487.06
2022-10-20T00:07:33.658Z,100478.66
2022-10-20T00:10:01.400Z,100476.72
2022-10-20T00:12:29.085Z,100472.44
2022-10-20T00:14:56.897Z,100470.00
2022-10-20T00:17:24.643Z,100472.91
2022-10-20T00:19:53.942Z,100481.34
2022-10-20T00:22:21.702Z,100488.25
2022-10-20T00:24:49.416Z,100481.16
2022-10-20T00:27:17.141Z,100472.16
2022-10-20T00:29:44.994Z,100466.56
2022-10-20T00:32:12.642Z,100480.41
2022-10-20T00:34:40.481Z,100488.22
2022-10-20T00:37:09.533Z,100495.22
2022-10-20T00:39:37.212Z,100494.09
2022-10-20T00:42:05.304Z,100500.50
2022-10-20T00:44:55.673Z,100505.53
2022-10-20T00:47:36.497Z,100501.47
2022-10-20T00:50:09.861Z,100497.38
2022-10-20T00:52:40.128Z,100489.16
2022-10-20T00:55:10.745Z,100494.28
2022-10-20T00:57:39.581Z,100488.56
2022-10-20T01:00:08.904Z,100481.53
2022-10-20T01:02:37.430Z,100488.78
2022-10-20T01:05:06.472Z,100482.19
2022-10-20T01:07:34.417Z,100494.72
2022-10-20T01:10:05.625Z,100492.56
2022-10-20T01:12:47.383Z,100494.72
2022-10-20T01:15:21.558Z,100497.03
2022-10-20T01:18:01.121Z,100486.09
2022-10-20T01:21:04.286Z,100476.75
2022-10-20T01:23:49.542Z,100472.81
2022-10-20T01:26:44.690Z,100463.25
2022-10-20T01:29:22.322Z,100461.03
2022-10-20T01:31:55.977Z,100461.66
2022-10-20T01:34:31.769Z,100455.13
2022-10-20T01:37:06.327Z,100460.44
2022-10-20T01:39:41.593Z,100444.16
2022-10-20T01:42:14.543Z,100439.38
2022-10-20T01:44:45.345Z,100440.66
2022-10-20T01:47:15.361Z,100442.41
2022-10-20T01:49:44.298Z,100445.69
2022-10-20T01:52:12.378Z,100435.16
2022-10-20T01:54:41.017Z,100433.00
2022-10-20T01:57:24.955Z,100427.50
2022-10-20T02:00:03.686Z,100430.75
2022-10-20T02:02:49.322Z,100420.06
2022-10-20T02:05:32.390Z,100410.59
2022-10-20T02:08:08.526Z,100410.94
2022-10-20T02:10:42.229Z,100405.09
2022-10-20T02:13:13.504Z,100397.31
2022-10-20T02:15:46.972Z,100389.44
2022-10-20T02:18:19.417Z,100397.59
2022-10-20T02:20:51.351Z,100405.41
2022-10-20T02:23:19.825Z,100402.28
2022-10-20T02:25:50.585Z,100395.94
2022-10-20T02:28:18.710Z,100392.03
2022-10-20T02:30:49.133Z,100380.47
2022-10-20T02:33:19.189Z,100374.72
2022-10-20T02:35:52.314Z,100358.78
2022-10-20T02:38:19.983Z,100352.78
2022-10-20T02:40:47.804Z,100338.25
2022-10-20T02:43:15.524Z,100322.06
2022-10-20T02:45:43.337Z,100311.69
2022-10-20T02:48:12.413Z,100300.31
2022-10-20T02:50:40.157Z,100307.19
2022-10-20T02:53:07.891Z,100314.34
2022-10-20T02:55:35.665Z,100313.28
2022-10-20T02:58:03.358Z,100312.75
2022-10-20T03:00:31.938Z,100309.13
2022-10-20T03:02:59.717Z,100301.03
2022-10-20T03:05:29.361Z,100292.63
2022-10-20T03:07:57.152Z,100290.41
2022-10-20T03:10:24.884Z,100299.59
2022-10-20T03:12:52.586Z,100292.22
2022-10-20T03:15:20.249Z,100286.09
2022-10-20T03:17:47.929Z,100296.84
2022-10-20T03:20:15.655Z,100291.66
2022-10-20T03:22:44.699Z,100284.22
2022-10-20T03:25:12.513Z,100286.34
2022-10-20T03:27:40.226Z,100287.69
2022-10-20T03:30:08.966Z,100286.94
2022-10-20T03:32:36.885Z,100291.97
2022-10-20T03:35:04.855Z,100291.25
2022-10-20T03:37:32.737Z,100281.78
2022-10-20T03:40:01.829Z,100278.00
2022-10-20T03:42:29.491Z,100270.59
2022-10-20T03:44:57.212Z,100265.09
2022-10-20T03:47:24.961Z,100275.25
2022-10-20T03:49:52.781Z,100270.69
2022-10-20T03:52:20.590Z,100266.91
2022-10-20T03:54:48.335Z,100266.81
2022-10-20T03:57:17.459Z,100277.91
2022-10-20T03:59:45.134Z,100274.06
2022-10-20T04:02:27.447Z,100278.00
2022-10-20T04:04:55.150Z,100278.06
2022-10-20T04:07:22.965Z,100273.63
2022-10-20T04:09:50.738Z,100274.63
2022-10-20T04:12:20.133Z,100281.13
2022-10-20T04:14:48.583Z,100271.38
2022-10-20T04:17:16.375Z,100264.94
2022-10-20T04:19:44.087Z,100267.41
2022-10-20T04:22:11.779Z,100273.97
2022-10-20T04:24:39.633Z,100270.72
2022-10-20T04:27:07.424Z,100273.44
2022-10-20T04:29:36.602Z,100270.47
2022-10-20T04:32:04.693Z,100254.56
2022-10-20T04:34:32.419Z,100262.59
2022-10-20T04:37:00.182Z,100263.00
2022-10-20T04:39:27.830Z,100267.03
2022-10-20T04:41:55.574Z,100275.44
2022-10-20T04:44:23.238Z,100275.88
2022-10-20T04:46:52.333Z,100273.91
2022-10-20T04:49:20.010Z,100272.97
2022-10-20T04:51:47.877Z,100270.66
2022-10-20T04:54:15.610Z,100277.69
2022-10-20T04:56:43.291Z,100277.41
2022-10-20T04:59:13.512Z,100290.91
2022-10-20T05:01:41.772Z,100322.84
2022-10-20T05:04:11.717Z,100324.28
2022-10-20T05:06:39.858Z,100336.66
2022-10-20T05:09:08.353Z,100340.25
2022-10-20T05:11:37.903Z,100353.22
2022-10-20T05:14:05.720Z,100349.38
2022-10-20T05:16:33.409Z,100352.84
2022-10-20T05:19:01.342Z,100367.66
2022-10-20T05:21:32.417Z,100363.22
2022-10-20T05:24:01.701Z,100365.59
2022-10-20T05:26:34.271Z,100360.03
2022-10-20T05:29:03.805Z,100351.94
2022-10-20T05:31:32.068Z,100348.53
2022-10-20T05:34:00.304Z,100296.00
2022-10-20T05:36:29.751Z,100268.84
2022-10-20T05:38:57.749Z,100296.28
2022-10-20T05:41:27.566Z,100322.94
2022-10-20T05:43:58.154Z,100342.22
2022-10-20T05:46:27.263Z,100337.44
2022-10-20T05:48:57.302Z,100342.34
2022-10-20T05:51:27.653Z,100317.22
2022-10-20T05:53:58.274Z,100326.41
2022-10-20T05:56:27.403Z,100338.88
2022-10-20T05:58:55.227Z,100322.66
2022-10-20T06:01:25.547Z,100312.94
2022-10-20T06:03:54.963Z,100300.69
2022-10-20T06:06:25.394Z,100298.41
2022-10-20T06:08:53.843Z,100303.28
2022-10-20T06:11:23.904Z,100311.72
2022-10-20T06:13:53.100Z,100325.56
2022-10-20T06:16:22.901Z,100318.69
2022-10-20T06:18:51.274Z,100318.94
2022-10-20T06:21:21.257Z,100304.25
2022-10-20T06:23:49.550Z,100296.63
2022-10-20T06:26:19.205Z,100301.41
2022-10-20T06:28:51.014Z,100304.47
2022-10-20T06:31:20.739Z,100295.81
2022-10-20T06:33:49.179Z,100295.56
2022-10-20T06:36:17.344Z,100297.06
2022-10-20T06:38:45.622Z,100308.25
2022-10-20T06:41:14.894Z,100315.13
2022-10-20T06:43:42.610Z,100316.84
2022-10-20T06:46:14.359Z,100323.63
2022-10-20T06:48:42.162Z,100331.03
2022-10-20T06:51:12.862Z,100334.91
2022-10-20T06:53:44.089Z,100335.56
2022-10-20T06:56:16.107Z,100343.00
2022-10-20T06:58:46.517Z,100348.47
2022-10-20T07:01:16.985Z,100346.78
2022-10-20T07:03:45.925Z,100349.97
2022-10-20T07:06:15.912Z,100346.59
2022-10-20T07:08:43.721Z,100345.19
2022-10-20T07:11:13.701Z,100350.06
2022-10-20T07:13:41.758Z,100357.56
2022-10-20T07:16:12.800Z,100349.53
2022-10-20T07:21:16.910Z,100364.88
2022-10-20T07:23:45.131Z,100362.72
2022-10-20T07:26:14.547Z,100362.84
2022-10-20T07:28:44.177Z,100360.16
2022-10-20T07:31:14.754Z,100356.66
2022-10-20T07:33:44.190Z,100354.81
2022-10-20T07:36:13.946Z,100357.75
2022-10-20T07:38:41.708Z,100358.50
2022-10-20T07:41:10.038Z,100376.31
2022-10-20T07:43:37.768Z,100367.81
2022-10-20T07:46:06.198Z,100365.59
2022-10-20T07:48:34.219Z,100366.69
2022-10-20T07:51:17.833Z,100364.75
2022-10-20T07:53:45.900Z,100365.66
2022-10-20T07:56:13.642Z,100360.94
2022-10-20T07:58:42.393Z,100370.81
2022-10-20T08:01:10.505Z,100361.38
2022-10-20T08:03:38.462Z,100358.88
2022-10-20T08:06:07.222Z,100363.50
2022-10-20T08:08:36.489Z,100370.66
2022-10-20T08:11:04.713Z,100370.63
2022-10-20T08:13:33.170Z,100362.78
2022-10-20T08:16:15.104Z,100372.16
2022-10-20T08:18:52.766Z,100370.66
2022-10-20T08:21:23.015Z,100378.41
2022-10-20T08:23:52.857Z,100373.06
2022-10-20T08:26:22.876Z,100381.53
2022-10-20T08:28:51.926Z,100382.06
2022-10-20T08:31:20.209Z,100383.78
2022-10-20T08:33:52.374Z,100378.28
2022-10-20T08:36:23.034Z,100373.06
2022-10-20T08:38:52.279Z,100371.19
2022-10-20T08:41:22.566Z,100375.25
2022-10-20T08:43:54.353Z,100369.34
2022-10-20T08:46:28.572Z,100365.44
2022-10-20T08:48:56.835Z,100372.16
2022-10-20T08:51:27.870Z,100375.84
2022-10-20T08:53:59.694Z,100372.16
2022-10-20T08:56:30.276Z,100362.47
2022-10-20T08:58:58.360Z,100365.13
2022-10-20T09:01:31.142Z,100362.03
2022-10-20T09:04:01.287Z,100359.72
2022-10-20T09:06:29.221Z,100358.22
2022-10-20T09:08:58.988Z,100362.22
2022-10-20T09:11:32.367Z,100357.97
2022-10-20T09:14:00.196Z,100352.66
2022-10-20T09:16:40.570Z,100358.84
2022-10-20T09:19:18.930Z,100362.41
2022-10-20T09:21:52.793Z,100361.38
2022-10-20T09:24:24.672Z,100355.25
2022-10-20T09:27:00.406Z,100352.78
2022-10-20T09:29:37.458Z,100354.13
2022-10-20T09:32:45.076Z,100356.53
2022-10-20T09:35:19.725Z,100363.00
2022-10-20T09:37:54.925Z,100363.00
2022-10-20T09:40:26.283Z,100353.69
2022-10-20T09:42:56.632Z,100344.41
2022-10-20T09:45:28.936Z,100345.47
2022-10-20T09:48:02.895Z,100352.25
2022-10-20T09:50:33.173Z,100358.97
2022-10-20T09:53:04.925Z,100343.34
2022-10-20T09:55:42.489Z,100342.88
2022-10-20T09:58:22.297Z,100340.75
2022-10-20T10:01:00.517Z,100342.56
2022-10-20T10:03:29.295Z,100344.31
2022-10-20T10:05:59.234Z,100332.50
2022-10-20T10:08:42.159Z,100325.56
2022-10-20T10:11:18.425Z,100318.28
2022-10-20T10:13:49.478Z,100321.84
2022-10-20T10:16:18.813Z,100316.16
2022-10-20T10:18:55.416Z,100318.28
2022-10-20T10:21:23.556Z,100312.03
2022-10-20T10:23:54.079Z,100303.31
2022-10-20T10:26:45.434Z,100296.13
2022-10-20T10:29:24.997Z,100290.31
2022-10-20T10:31:59.338Z,100297.38
2022-10-20T10:34:36.394Z,100295.91
2022-10-20T10:37:04.249Z,100285.41
2022-10-20T10:39:36.552Z,100282.84
2022-10-20T10:42:29.300Z,100287.69
2022-10-20T10:45:08.825Z,100279.50
2022-10-20T10:48:02.058Z,100274.53
2022-10-20T10:50:36.070Z,100269.78
2022-10-20T10:53:17.345Z,100272.22
2022-10-20T10:55:54.284Z,100276.84
2022-10-20T10:58:39.026Z,100280.44
2022-10-20T11:01:30.596Z,100279.28
2022-10-20T11:04:14.956Z,100281.19
2022-10-20T11:06:54.223Z,100275.69
2022-10-20T11:09:32.181Z,100264.59
2022-10-20T11:12:20.137Z,100263.59
2022-10-20T11:15:03.329Z,100257.06
2022-10-20T11:17:48.594Z,100254.38
2022-10-20T11:20:26.616Z,100255.97
2022-10-20T11:23:22.121Z,100252.56
2022-10-20T11:25:58.315Z,100253.19
2022-10-20T11:28:36.207Z,100250.47
2022-10-20T11:31:06.166Z,100253.25
2022-10-20T11:33:45.579Z,100251.50
2022-10-20T11:36:17.690Z,100252.91
2022-10-20T11:38:50.226Z,100246.47
2022-10-20T11:41:23.743Z,100251.22
2022-10-20T11:43:58.388Z,100242.44
2022-10-20T11:46:37.444Z,100239.41
2022-10-20T11:49:05.372Z,100233.97
2022-10-20T11:52:07.304Z,100228.25
2022-10-20T11:54:56.079Z,100224.09
2022-10-20T11:57:37.267Z,100223.84
2022-10-20T12:03:30.673Z,100217.09
2022-10-20T12:06:36.399Z,100213.59
2022-10-20T12:12:02.808Z,100199.66
2022-10-20T12:14:38.535Z,100203.50
2022-10-20T12:17:28.557Z,100200.47
2022-10-20T12:20:28.769Z,100192.56
2022-10-20T12:23:01.555Z,100176.47
2022-10-20T12:25:41.327Z,100177.22
2022-10-20T12:28:33.859Z,100177.06
2022-10-20T12:31:03.810Z,100164.34
2022-10-20T12:33:43.228Z,100158.38
2022-10-20T12:36:39.200Z,100152.25
2022-10-20T12:39:17.481Z,100144.06
2022-10-20T12:41:57.342Z,100132.34
2022-10-20T12:44:25.779Z,100136.78
2022-10-20T12:46:56.581Z,100134.78
2022-10-20T12:49:30.258Z,100132.72
2022-10-20T12:52:00.665Z,100131.34
2022-10-20T12:54:35.804Z,100133.13
2022-10-20T12:57:06.175Z,100125.88
2022-10-20T12:59:40.070Z,100118.44
2022-10-20T13:02:48.041Z,100117.75
2022-10-20T13:05:42.201Z,100114.34
2022-10-20T13:08:30.710Z,100111.47
2022-10-20T13:11:38.982Z,100110.97
2022-10-20T13:14:19.522Z,100104.00
2022-10-20T13:16:52.075Z,100100.25
2022-10-20T13:19:24.579Z,100084.78
2022-10-20T13:21:52.777Z,100083.59
2022-10-20T13:24:27.079Z,100090.50
2022-10-20T13:26:59.760Z,100094.66
2022-10-20T13:29:29.689Z,100086.47
2022-10-20T13:32:16.550Z,100085.47
2022-10-20T13:34:51.046Z,100079.53
2022-10-20T13:37:41.075Z,100073.22
2022-10-20T13:40:23.409Z,100083.75
2022-10-20T13:43:04.132Z,100076.69
2022-10-20T13:45:47.218Z,100073.94
2022-10-20T13:48:31.140Z,100062.81
2022-10-20T13:51:01.086Z,100066.50
2022-10-20T13:53:33.095Z,100070.09
2022-10-20T13:56:05.132Z,100061.38
2022-10-20T13:58:35.690Z,100051.06
2022-10-20T14:01:06.131Z,100042.28
2022-10-20T14:03:41.878Z,100044.00
2022-10-20T14:06:30.958Z,100043.63
2022-10-20T14:09:00.345Z,100042.69
2022-10-20T14:11:32.803Z,100031.97
2022-10-20T14:14:03.188Z,100027.53
2022-10-20T14:16:32.276Z,100026.38
2022-10-20T14:19:05.291Z,100021.09
2022-10-20T14:21:41.259Z,100018.78
2022-10-20T14:24:16.236Z,100025.16
2022-10-20T14:26:45.096Z,100014.25
2022-10-20T14:29:18.366Z,100022.88
2022-10-20T14:31:47.111Z,100018.59
2022-10-20T14:34:22.329Z,100017.81
2022-10-20T14:36:51.640Z,100017.47
2022-10-20T14:39:25.425Z,100014.16
2022-10-20T14:41:56.718Z,100011.28
2022-10-20T14:44:31.464Z,100016.97
2022-10-20T14:47:05.221Z,100004.88
2022-10-20T14:49:38.171Z,100007.28
2022-10-20T14:52:06.202Z,100000.78
2022-10-20T14:54:37.736Z,100003.81
2022-10-20T14:57:45.959Z,99995.59
2022-10-20T15:00:42.322Z,99996.34
2022-10-20T15:03:10.823Z,99990.94
2022-10-20T15:05:41.881Z,99993.13
2022-10-20T15:08:25.195Z,99984.53
2022-10-20T15:10:53.267Z,99982.66
2022-10-20T15:13:28.649Z,99978.22
2022-10-20T15:15:59.377Z,99972.94
2022-10-20T15:18:27.566Z,99972.59
2022-10-20T15:20:56.601Z,99969.19
2022-10-20T15:23:26.398Z,99965.91
2022-10-20T15:25:56.490Z,99972.59
2022-10-20T15:28:32.822Z,99976.94
2022-10-20T15:31:04.743Z,99971.47
2022-10-20T15:33:32.598Z,99973.44
2022-10-20T15:36:01.799Z,99980.44
2022-10-20T15:38:29.786Z,99971.63
2022-10-20T15:40:57.655Z,99975.72
2022-10-20T15:43:25.380Z,99982.84
2022-10-20T15:45:55.682Z,99980.78
2022-10-20T15:48:26.130Z,99977.72
2022-10-20T15:50:54.488Z,99971.44
2022-10-20T15:53:22.187Z,99982.47
2022-10-20T15:55:49.921Z,99974.47
2022-10-20T15:58:17.908Z,99969.44
2022-10-20T16:00:45.654Z,99969.56
2022-10-20T16:03:17.689Z,99962.78
2022-10-20T16:05:47.354Z,99950.88
2022-10-20T16:10:47.742Z,99955.19
2022-10-20T16:13:15.783Z,99958.19
2022-10-20T16:15:43.555Z,99948.53
2022-10-20T16:18:12.122Z,99948.50
2022-10-20T16:20:39.863Z,99945.41
2022-10-20T16:23:08.941Z,99948.97
2022-10-20T16:25:36.722Z,99955.38
2022-10-20T16:28:04.543Z,99957.22
2022-10-20T16:30:32.446Z,99948.53
2022-10-20T16:33:00.225Z,99948.31
2022-10-20T16:35:27.928Z,99945.88
2022-10-20T16:37:55.841Z,99941.47
2022-10-20T16:40:25.104Z,99940.06
2022-10-20T16:42:52.781Z,99942.16
2022-10-20T16:45:20.607Z,99939.47
2022-10-20T16:47:48.518Z,99940.72
2022-10-20T16:50:16.447Z,99935.72
2022-10-20T16:52:44.171Z,99929.56
2022-10-20T16:55:11.950Z,99936.91
2022-10-20T16:57:41.178Z,99930.66
2022-10-20T17:00:10.770Z,99928.59
2022-10-20T17:02:43.073Z,99924.09
2022-10-20T17:05:11.043Z,99921.13
2022-10-20T17:07:39.018Z,99919.81
2022-10-20T17:10:08.270Z,99924.47
2022-10-20T17:12:36.091Z,99926.28
2022-10-20T17:15:05.852Z,99925.19
2022-10-20T17:17:33.611Z,99931.06
2022-10-20T17:20:01.417Z,99930.84
2022-10-20T17:22:29.198Z,99942.03
2022-10-20T17:24:56.938Z,99939.50
2022-10-20T17:27:24.752Z,99933.91
2022-10-20T17:29:52.458Z,99933.50
2022-10-20T17:32:21.568Z,99933.66
2022-10-20T17:34:49.246Z,99937.44
2022-10-20T17:37:16.976Z,99934.72
2022-10-20T17:39:44.724Z,99936.41
2022-10-20T17:42:12.451Z,99935.19
2022-10-20T17:44:40.191Z,99933.69
2022-10-20T17:47:08.072Z,99933.00
2022-10-20T17:49:37.097Z,99930.63
2022-10-20T17:52:04.848Z,99933.38
2022-10-20T17:54:32.635Z,99935.25
2022-10-20T17:57:00.314Z,99926.69
2022-10-20T17:59:28.779Z,99927.47
2022-10-20T18:01:58.080Z,99931.78
2022-10-20T18:04:25.977Z,99937.81
2022-10-20T18:06:55.110Z,99941.84
2022-10-20T18:09:22.892Z,99936.03
2022-10-20T18:11:52.147Z,99940.66
2022-10-20T18:14:20.398Z,99936.03
2022-10-20T18:16:48.663Z,99944.34
2022-10-20T18:19:18.001Z,99942.53
2022-10-20T18:21:45.964Z,99942.84
2022-10-20T18:24:16.693Z,99931.59
2022-10-20T18:26:44.774Z,99930.47
2022-10-20T18:29:14.211Z,99937.28
2022-10-20T18:31:43.462Z,99937.13
2022-10-20T18:34:13.554Z,99930.75
2022-10-20T18:36:45.086Z,99943.44
2022-10-20T18:39:15.797Z,99943.69
2022-10-20T18:41:45.462Z,99944.94
2022-10-20T18:44:15.633Z,99952.03
2022-10-20T18:46:44.009Z,99951.88
2022-10-20T18:49:14.163Z,99953.34
2022-10-20T18:51:42.209Z,99951.69
2022-10-20T18:54:10.435Z,99952.88
2022-10-20T18:56:39.553Z,99956.28
2022-10-20T18:59:09.797Z,99952.31
2022-10-20T19:01:39.674Z,99948.03
2022-10-20T19:04:08.841Z,99951.75
2022-10-20T19:06:38.142Z,99941.53
2022-10-20T19:09:08.156Z,99944.63
2022-10-20T19:11:38.269Z,99933.81
2022-10-20T19:14:09.487Z,99926.47
2022-10-20T19:16:37.500Z,99929.56
2022-10-20T19:19:07.264Z,99931.53
2022-10-20T19:21:35.769Z,99926.53
2022-10-20T19:24:06.043Z,99918.03
2022-10-20T19:26:35.821Z,99918.63
2022-10-20T19:29:06.203Z,99921.91
2022-10-20T19:31:38.609Z,99916.06
2022-10-20T19:34:08.911Z,99922.84
2022-10-20T19:36:37.698Z,99928.97
2022-10-20T19:39:06.498Z,99930.66
2022-10-20T19:41:34.440Z,99929.53
2022-10-20T19:44:02.278Z,99924.16
2022-10-20T19:46:30.548Z,99919.59
2022-10-20T19:49:00.526Z,99915.09
2022-10-20T19:51:28.282Z,99909.69
2022-10-20T19:53:56.032Z,99913.97
2022-10-20T19:56:23.971Z,99914.78
2022-10-20T19:58:51.904Z,99903.75
2022-10-20T20:01:19.843Z,99902.63
2022-10-20T20:03:47.683Z,99901.19
2022-10-20T20:06:19.474Z,99887.41
2022-10-20T20:08:49.561Z,99876.78
2022-10-20T20:11:23.707Z,99875.91
2022-10-20T20:13:51.767Z,99877.31
2022-10-20T20:16:19.630Z,99879.31
2022-10-20T20:18:48.080Z,99891.53
2022-10-20T20:21:17.466Z,99886.56
2022-10-20T20:23:58.711Z,99888.00
2022-10-20T20:26:27.899Z,99896.91
2022-10-20T20:28:56.732Z,99892.94
2022-10-20T20:31:25.225Z,99893.97
2022-10-20T20:33:53.556Z,99893.78
2022-10-20T20:36:22.676Z,99879.28
2022-10-20T20:38:52.609Z,99877.88
2022-10-20T20:41:24.517Z,99886.97
2022-10-20T20:43:52.195Z,99885.28
2022-10-20T20:46:22.326Z,99878.19
2022-10-20T20:48:50.745Z,99883.31
2022-10-20T20:51:18.466Z,99884.16
2022-10-20T20:53:47.774Z,99886.69
2022-10-20T20:56:20.663Z,99891.25
2022-10-20T20:58:54.715Z,99889.53
2022-10-20T21:01:24.809Z,99890.41
2022-10-20T21:03:54.255Z,99896.22
2022-10-20T21:06:25.773Z,99886.84
2022-10-20T21:09:03.201Z,99889.56
2022-10-20T21:11:31.039Z,99879.03
2022-10-20T21:13:59.889Z,99884.44
2022-10-20T21:16:29.668Z,99883.75
2022-10-20T21:18:58.938Z,99879.34
2022-10-20T21:21:28.105Z,99875.22
2022-10-20T21:23:56.962Z,99870.53
2022-10-20T21:26:26.949Z,99868.41
2022-10-20T21:28:55.100Z,99875.66
2022-10-20T21:31:24.970Z,99868.81
2022-10-20T21:33:54.301Z,99858.34
2022-10-20T21:36:22.841Z,99850.22
2022-10-20T21:38:51.193Z,99856.19
2022-10-20T21:41:20.366Z,99850.53
2022-10-20T21:43:51.498Z,99864.16
2022-10-20T21:46:21.441Z,99855.06
2022-10-20T21:48:51.825Z,99838.44
2022-10-20T21:51:21.563Z,99837.16
2022-10-20T21:53:49.365Z,99843.16
2022-10-20T21:56:17.367Z,99863.84
2022-10-20T21:58:45.117Z,99859.03
2022-10-20T22:01:16.342Z,99843.88
2022-10-20T22:03:45.046Z,99861.72
2022-10-20T22:06:14.549Z,99870.69
2022-10-20T22:08:44.244Z,99866.00
2022-10-20T22:11:14.603Z,99861.16
2022-10-20T22:13:42.607Z,99860.19
2022-10-20T22:16:12.757Z,99867.00
2022-10-20T22:18:42.202Z,99852.06
2022-10-20T22:21:13.589Z,99846.38
2022-10-20T22:23:41.878Z,99843.00
2022-10-20T22:26:10.555Z,99827.66
2022-10-20T22:28:38.850Z,99817.41
2022-10-20T22:31:07.200Z,99815.00
2022-10-20T22:33:35.116Z,99831.78
2022-10-20T22:36:04.757Z,99824.66
2022-10-20T22:38:32.531Z,99822.13
2022-10-20T22:41:00.612Z,99822.38
2022-10-20T22:43:28.584Z,99853.03
2022-10-20T22:45:56.660Z,99900.88
2022-10-20T22:48:24.812Z,99901.19
2022-10-20T22:50:52.506Z,99877.34
2022-10-20T22:53:21.675Z,99866.53
2022-10-20T22:55:49.517Z,99859.44
2022-10-20T22:58:17.317Z,99865.44
2022-10-20T23:00:45.097Z,99855.75
2022-10-20T23:03:13.467Z,99852.53
2022-10-20T23:05:41.209Z,99850.66
2022-10-20T23:08:08.882Z,99840.97
2022-10-20T23:10:38.045Z,99840.56
2022-10-20T23:13:06.446Z,99836.47
2022-10-20T23:15:34.188Z,99825.94
2022-10-20T23:18:01.860Z,99838.44
2022-10-20T23:20:29.616Z,99846.66
2022-10-20T23:22:57.280Z,99842.09
2022-10-20T23:25:24.999Z,99842.41
2022-10-20T23:27:54.114Z,99856.03
2022-10-20T23:30:21.828Z,99849.50
2022-10-20T23:32:49.530Z,99847.94
2022-10-20T23:35:17.366Z,99846.41
2022-10-20T23:37:46.061Z,99849.22
2022-10-20T23:40:13.823Z,99844.53
2022-10-20T23:42:41.482Z,99849.81
2022-10-20T23:45:11.786Z,99843.97
2022-10-20T23:47:39.814Z,99833.59
2022-10-20T23:50:08.165Z,99834.59
2022-10-20T23:52:36.015Z,99841.56
2022-10-20T23:55:04.230Z,99845.38
2022-10-20T23:57:31.920Z,99844.41
2022-10-20T23:59:59.618Z,99837.47
